Time;durP1;ratioP1;P1;durP2;ratioP2;P2;SDS_P1;SDS_P2;PMS_P1;PMS_P2;Temp;Humidity;BMP_temperature;BMP_pressure;BME280_temperature;BME280_humidity;BME280_pressure;Samples;Min_cycle;Max_cycle;Signal;HPM_P1;HPM_P2
2020/12/14 00:01:34;;;;;;;;;;;;;;;1.65;100.00;100775.16;5113923;28;19967;-72
2020/12/14 00:04:00;;;;;;;;;;;;;;;1.62;100.00;100786.00;5113859;28;19927;-72
2020/12/14 00:06:26;;;;;;;;;;;;;;;1.62;100.00;100783.31;5113731;28;19924;-72
2020/12/14 00:08:53;;;;;;;;;;;;;;;1.63;100.00;100793.94;5113689;28;20395;-72
2020/12/14 00:11:18;;;;;;;;;;;;;;;1.66;100.00;100798.31;5113864;28;20022;-72
2020/12/14 00:13:46;;;;;;;;;;;;;;;1.66;100.00;100792.94;5113625;28;19924;-72
2020/12/14 00:16:12;;;;;;;;;;;;;;;1.66;100.00;100793.81;5113249;28;19971;-72
2020/12/14 00:18:37;;;;;;;;;;;;;;;1.68;100.00;100796.41;5114064;28;19923;-72
2020/12/14 00:21:03;;;;;;;;;;;;;;;1.70;100.00;100791.88;5113522;28;19931;-72
2020/12/14 00:23:29;;;;;;;;;;;;;;;1.73;100.00;100793.56;5113577;28;19923;-72
2020/12/14 00:25:55;;;;;;;;;;;;;;;1.70;100.00;100789.19;5112151;28;19935;-72
2020/12/14 00:28:21;;;;;;;;;;;;;;;1.70;100.00;100797.22;5112065;28;20023;-72
2020/12/14 00:30:47;;;;;;;;;;;;;;;1.69;100.00;100791.94;5112471;28;19924;-72
2020/12/14 00:33:13;;;;;;;;;;;;;;;1.72;100.00;100794.47;5113115;28;19928;-72
2020/12/14 00:35:39;;;;;;;;;;;;;;;1.73;100.00;100796.22;5112940;28;19931;-72
2020/12/14 00:38:04;;;;;;;;;;;;;;;1.74;100.00;100801.50;5112973;28;20300;-72
2020/12/14 00:40:30;;;;;;;;;;;;;;;1.74;100.00;100790.81;5113144;28;19928;-72
2020/12/14 00:42:57;;;;;;;;;;;;;;;1.76;100.00;100790.72;5113135;28;19949;-72
2020/12/14 00:45:23;;;;;;;;;;;;;;;1.79;100.00;100799.50;5113045;28;19966;-72
2020/12/14 00:47:48;;;;;;;;;;;;;;;1.81;100.00;100792.25;5112660;28;19923;-72
2020/12/14 00:50:14;;;;;;;;;;;;;;;1.84;100.00;100801.97;5113038;28;19931;-72
2020/12/14 00:52:40;;;;;;;;;;;;;;;1.86;100.00;100802.78;5112670;28;20416;-72
2020/12/14 00:55:06;;;;;;;;;;;;;;;1.88;100.00;100802.72;5112893;28;19973;-72
2020/12/14 00:57:32;;;;;;;;;;;;;;;1.90;100.00;100799.03;5112636;28;19928;-71
2020/12/14 00:59:59;;;;;;;;;;;;;;;1.93;100.00;100787.31;5112754;28;19946;-72
2020/12/14 01:02:24;;;;;;;;;;;;;;;1.95;100.00;100791.69;5112686;28;20404;-72
2020/12/14 01:04:51;;;;;;;;;;;;;;;1.98;100.00;100801.38;5112780;28;19932;-72
2020/12/14 01:07:16;;;;;;;;;;;;;;;1.97;100.00;100799.63;5112496;28;19971;-72
2020/12/14 01:09:42;;;;;;;;;;;;;;;1.95;100.00;100804.19;5112208;28;19924;-72
2020/12/14 01:12:08;;;;;;;;;;;;;;;1.97;100.00;100808.53;5111101;28;20566;-73
2020/12/14 01:14:34;;;;;;;;;;;;;;;1.97;100.00;100808.53;5112460;28;20496;-72
2020/12/14 01:17:00;;;;;;;;;;;;;;;1.99;100.00;100811.13;5112249;28;19931;-72
2020/12/14 01:19:26;;;;;;;;;;;;;;;2.00;100.00;100807.53;5112537;28;19928;-72
2020/12/14 01:21:52;;;;;;;;;;;;;;;1.99;100.00;100812.03;5112413;28;20408;-72
2020/12/14 01:24:18;;;;;;;;;;;;;;;1.97;100.00;100813.88;5112471;28;19924;-72
2020/12/14 01:26:43;;;;;;;;;;;;;;;1.97;100.00;100818.38;5112124;28;19924;-72
2020/12/14 01:29:09;;;;;;;;;;;;;;;1.96;100.00;100819.31;5111813;28;20015;-72
2020/12/14 01:31:35;;;;;;;;;;;;;;;1.99;100.00;100827.19;5112370;28;20351;-72
2020/12/14 01:34:02;;;;;;;;;;;;;;;1.98;100.00;100820.13;5112211;28;20011;-72
2020/12/14 01:36:27;;;;;;;;;;;;;;;1.99;100.00;100822.72;5111922;28;19996;-72
2020/12/14 01:38:53;;;;;;;;;;;;;;;2.01;100.00;100820.84;5112079;28;19931;-72
2020/12/14 01:41:19;;;;;;;;;;;;;;;2.01;100.00;100818.16;5110659;28;19924;-72
2020/12/14 01:43:45;;;;;;;;;;;;;;;2.04;100.00;100817.16;5111732;28;19928;-72
2020/12/14 01:46:11;;;;;;;;;;;;;;;2.09;100.00;100811.63;5111839;28;19923;-72
2020/12/14 01:48:37;;;;;;;;;;;;;;;2.11;100.00;100804.38;5111581;28;19945;-72
2020/12/14 01:51:04;;;;;;;;;;;;;;;2.14;100.00;100814.97;5111956;28;20019;-72
2020/12/14 01:53:31;;;;;;;;;;;;;;;2.17;100.00;100813.00;5111903;28;19974;-72
2020/12/14 01:55:56;;;;;;;;;;;;;;;2.17;100.00;100807.63;5111761;28;20358;-72
2020/12/14 01:58:22;;;;;;;;;;;;;;;2.18;100.00;100813.88;5111778;28;20018;-72
2020/12/14 02:00:48;;;;;;;;;;;;;;;2.14;100.00;100807.78;5111873;28;20018;-72
2020/12/14 02:03:14;;;;;;;;;;;;;;;2.16;100.00;100797.88;5111821;28;19924;-72
2020/12/14 02:05:40;;;;;;;;;;;;;;;2.17;100.00;100799.59;5111618;28;20022;-72
2020/12/14 02:08:08;;;;;;;;;;;;;;;2.18;100.00;100790.63;5111202;28;19939;-71
2020/12/14 02:10:34;;;;;;;;;;;;;;;2.21;100.00;100786.09;5111874;28;20392;-72
2020/12/14 02:13:00;;;;;;;;;;;;;;;2.24;100.00;100799.34;5111548;28;19985;-72
2020/12/14 02:15:26;;;;;;;;;;;;;;;2.23;100.00;100794.91;5111746;28;20029;-72
2020/12/14 02:17:51;;;;;;;;;;;;;;;2.24;100.00;100789.47;5111492;28;20449;-72
2020/12/14 02:20:17;;;;;;;;;;;;;;;2.25;100.00;100785.00;5111663;28;19924;-71
2020/12/14 02:22:43;;;;;;;;;;;;;;;2.27;100.00;100785.78;5111518;28;19972;-72
2020/12/14 02:25:10;;;;;;;;;;;;;;;2.29;100.00;100789.28;5111503;28;19927;-72
2020/12/14 02:27:36;;;;;;;;;;;;;;;2.32;100.00;100783.78;5111411;28;19980;-72
2020/12/14 02:30:03;;;;;;;;;;;;;;;2.32;100.00;100781.09;5111586;28;19931;-72
2020/12/14 02:32:30;;;;;;;;;;;;;;;2.34;100.00;100780.09;5111584;28;20401;-72
2020/12/14 02:34:56;;;;;;;;;;;;;;;2.38;100.00;100774.59;5111512;28;20022;-72
2020/12/14 02:37:23;;;;;;;;;;;;;;;2.41;100.00;100774.47;5111395;28;20339;-72
2020/12/14 02:39:49;;;;;;;;;;;;;;;2.42;100.00;100777.06;5111520;28;19959;-72
2020/12/14 02:42:16;;;;;;;;;;;;;;;2.43;100.00;100770.78;5111482;28;19966;-72
2020/12/14 02:44:43;;;;;;;;;;;;;;;2.43;100.00;100761.84;5111253;28;19959;-72
2020/12/14 02:47:09;;;;;;;;;;;;;;;2.41;100.00;100758.38;5111330;28;19928;-72
2020/12/14 02:49:35;;;;;;;;;;;;;;;2.41;100.00;100761.06;5111621;28;19923;-71
2020/12/14 02:52:01;;;;;;;;;;;;;;;2.41;100.00;100756.56;5111450;28;19945;-71
2020/12/14 02:54:27;;;;;;;;;;;;;;;2.42;100.00;100758.31;5112176;28;19923;-71
2020/12/14 02:56:53;;;;;;;;;;;;;;;2.39;100.00;100768.28;5115085;28;19955;-71
2020/12/14 02:59:21;;;;;;;;;;;;;;;2.37;100.00;100767.50;5115141;28;19924;-71
2020/12/14 03:01:47;;;;;;;;;;;;;;;2.40;100.00;100764.69;5113741;28;20335;-71
2020/12/14 03:04:12;;;;;;;;;;;;;;;2.40;100.00;100764.69;5115033;28;20420;-71
2020/12/14 03:06:38;;;;;;;;;;;;;;;2.44;100.00;100771.63;5115868;28;19924;-71
2020/12/14 03:09:04;;;;;;;;;;;;;;;2.43;100.00;100778.81;5115204;28;19928;-71
2020/12/14 03:11:30;;;;;;;;;;;;;;;2.44;100.00;100763.59;5114959;28;19927;-71
2020/12/14 03:13:56;;;;;;;;;;;;;;;2.45;100.00;100770.69;5114815;28;19924;-72
2020/12/14 03:16:23;;;;;;;;;;;;;;;2.47;100.00;100777.72;5113574;28;19985;-71
2020/12/14 03:18:49;;;;;;;;;;;;;;;2.47;100.00;100779.50;5114456;28;19963;-71
2020/12/14 03:21:14;;;;;;;;;;;;;;;2.48;100.00;100779.44;5114709;28;19989;-71
2020/12/14 03:23:40;;;;;;;;;;;;;;;2.51;100.00;100781.09;5114653;27;19935;-71
2020/12/14 03:26:06;;;;;;;;;;;;;;;2.53;100.00;100775.69;5114458;28;19931;-71
2020/12/14 03:28:32;;;;;;;;;;;;;;;2.55;100.00;100771.13;5114666;28;19977;-71
2020/12/14 03:30:58;;;;;;;;;;;;;;;2.55;100.00;100768.44;5114596;28;19927;-71
2020/12/14 03:33:24;;;;;;;;;;;;;;;2.57;100.00;100771.94;5114475;28;19924;-71
2020/12/14 03:35:50;;;;;;;;;;;;;;;2.59;100.00;100767.34;5114094;28;19982;-72
2020/12/14 03:38:16;;;;;;;;;;;;;;;2.60;100.00;100764.59;5114120;28;19927;-71
2020/12/14 03:40:42;;;;;;;;;;;;;;;2.61;100.00;100760.13;5114479;28;20027;-71
2020/12/14 03:43:08;;;;;;;;;;;;;;;2.61;100.00;100765.50;5114209;28;20424;-72
2020/12/14 03:45:34;;;;;;;;;;;;;;;2.62;100.00;100764.53;5114324;28;19927;-71
2020/12/14 03:48:00;;;;;;;;;;;;;;;2.61;100.00;100755.63;5113989;28;20032;-71
2020/12/14 03:50:27;;;;;;;;;;;;;;;2.64;100.00;100754.59;5113927;28;19924;-71
2020/12/14 03:52:52;;;;;;;;;;;;;;;2.66;100.00;100745.56;5114000;28;19981;-71
2020/12/14 03:55:18;;;;;;;;;;;;;;;2.65;100.00;100751.84;5114093;28;19932;-71
2020/12/14 03:57:44;;;;;;;;;;;;;;;2.66;100.00;100752.75;5113783;28;19927;-71
2020/12/14 04:00:10;;;;;;;;;;;;;;;2.67;100.00;100755.34;5114086;28;19977;-71
2020/12/14 04:02:39;;;;;;;;;;;;;;;2.71;100.00;100752.50;5113921;28;20006;-71
2020/12/14 04:05:05;;;;;;;;;;;;;;;2.72;100.00;100752.44;5113685;28;20396;-71
2020/12/14 04:07:31;;;;;;;;;;;;;;;2.74;100.00;100742.50;5113522;28;20027;-71
2020/12/14 04:09:57;;;;;;;;;;;;;;;2.76;100.00;100745.97;5113769;28;20449;-71
2020/12/14 04:12:23;;;;;;;;;;;;;;;2.79;100.00;100753.00;5113534;28;19990;-71
2020/12/14 04:14:49;;;;;;;;;;;;;;;2.78;100.00;100752.13;5113792;28;19976;-71
2020/12/14 04:17:15;;;;;;;;;;;;;;;2.79;100.00;100753.88;5113416;28;19923;-71
2020/12/14 04:19:40;;;;;;;;;;;;;;;2.80;100.00;100755.59;5113675;28;19951;-71
2020/12/14 04:22:07;;;;;;;;;;;;;;;2.84;100.00;100759.00;5113452;28;19954;-71
2020/12/14 04:24:34;;;;;;;;;;;;;;;2.84;100.00;100757.19;5113489;28;20108;-71
2020/12/14 04:27:00;;;;;;;;;;;;;;;2.87;100.00;100752.63;5113309;28;19990;-71
2020/12/14 04:29:26;;;;;;;;;;;;;;;2.87;100.00;100749.94;5113078;28;20331;-71
2020/12/14 04:31:51;;;;;;;;;;;;;;;2.89;100.00;100758.81;5113292;28;19928;-71
2020/12/14 04:34:17;;;;;;;;;;;;;;;2.91;100.00;100756.91;5113289;28;20001;-71
2020/12/14 04:36:43;;;;;;;;;;;;;;;2.91;100.00;100759.59;5113187;28;20032;-71
2020/12/14 04:39:09;;;;;;;;;;;;;;;2.93;100.00;100761.25;5113247;28;20015;-71
2020/12/14 04:41:36;;;;;;;;;;;;;;;2.94;100.00;100756.75;5113206;28;19924;-71
2020/12/14 04:44:01;;;;;;;;;;;;;;;2.94;100.00;100751.38;5113025;28;19978;-71
2020/12/14 04:46:29;;;;;;;;;;;;;;;2.97;100.00;100754.78;5112905;28;20377;-71
2020/12/14 04:48:55;;;;;;;;;;;;;;;2.99;100.00;100762.75;5112544;28;19965;-71
2020/12/14 04:51:21;;;;;;;;;;;;;;;2.99;100.00;100760.06;5113102;27;20400;-71
2020/12/14 04:53:47;;;;;;;;;;;;;;;2.99;100.00;100760.97;5112877;28;19924;-71
2020/12/14 04:56:16;;;;;;;;;;;;;;;3.01;100.00;100760.88;5112669;28;19934;-71
2020/12/14 04:58:43;;;;;;;;;;;;;;;3.01;100.00;100758.19;5112874;28;20303;-71
2020/12/14 05:01:09;;;;;;;;;;;;;;;3.01;100.00;100768.94;5111751;28;19923;-71
2020/12/14 05:03:35;;;;;;;;;;;;;;;3.01;100.00;100764.41;5112845;28;19972;-71
2020/12/14 05:06:00;;;;;;;;;;;;;;;3.01;100.00;100768.94;5112575;28;19936;-71
2020/12/14 05:08:27;;;;;;;;;;;;;;;3.05;100.00;100758.91;5112373;28;19931;-71
2020/12/14 05:10:53;;;;;;;;;;;;;;;3.04;100.00;100760.72;5112775;28;20446;-75
2020/12/14 05:13:18;;;;;;;;;;;;;;;3.06;100.00;100758.84;5112724;28;19923;-73
2020/12/14 05:15:45;;;;;;;;;;;;;;;3.05;100.00;100762.47;5112511;28;20357;-72
2020/12/14 05:18:12;;;;;;;;;;;;;;;3.05;100.00;100762.47;5111942;28;19959;-72
2020/12/14 05:20:38;;;;;;;;;;;;;;;3.07;100.00;100770.44;5112583;28;19977;-72
2020/12/14 05:23:04;;;;;;;;;;;;;;;3.08;100.00;100764.13;5112343;28;20392;-72
2020/12/14 05:25:30;;;;;;;;;;;;;;;3.08;100.00;100762.31;5110910;28;20332;-72
2020/12/14 05:28:00;;;;;;;;;;;;;;;3.07;100.00;100762.38;5106795;28;19949;-72
2020/12/14 05:30:32;;;;;;;;;;;;;;;3.07;100.00;100760.56;5098799;28;19963;-72
2020/12/14 05:33:00;;;;;;;;;;;;;;;3.10;100.00;100770.28;5106036;28;19985;-72
2020/12/14 05:35:29;;;;;;;;;;;;;;;3.10;100.00;100772.94;5099375;28;19924;-72
2020/12/14 05:38:08;;;;;;;;;;;;;;;3.09;100.00;100758.69;5104211;28;19967;-72
2020/12/14 05:40:33;;;;;;;;;;;;;;;3.11;100.00;100763.97;5091554;28;19975;-72
2020/12/14 05:43:06;;;;;;;;;;;;;;;3.12;100.00;100758.53;5103370;28;20030;-72
2020/12/14 05:45:32;;;;;;;;;;;;;;;3.10;100.00;100755.06;5112162;28;20349;-72
2020/12/14 05:47:58;;;;;;;;;;;;;;;3.12;100.00;100761.19;5105900;28;19924;-72
2020/12/14 05:50:26;;;;;;;;;;;;;;;3.13;100.00;100767.47;5111534;28;19931;-72
2020/12/14 05:52:54;;;;;;;;;;;;;;;3.16;100.00;100768.16;5111480;28;19931;-72
2020/12/14 05:55:21;;;;;;;;;;;;;;;3.16;100.00;100772.66;5095268;28;20400;-71
2020/12/14 05:57:48;;;;;;;;;;;;;;;3.15;100.00;100777.16;5108056;28;19924;-72
2020/12/14 06:00:14;;;;;;;;;;;;;;;3.16;100.00;100775.34;5110561;28;19955;-72
2020/12/14 06:02:39;;;;;;;;;;;;;;;3.17;100.00;100771.72;5111735;28;20312;-72
2020/12/14 06:05:06;;;;;;;;;;;;;;;3.14;100.00;100753.97;5113641;28;19949;-72
2020/12/14 06:07:33;;;;;;;;;;;;;;;3.14;100.00;100759.31;5110475;28;20325;-72
2020/12/14 06:10:03;;;;;;;;;;;;;;;3.16;100.00;100761.94;5111789;28;19924;-72
2020/12/14 06:12:29;;;;;;;;;;;;;;;3.15;100.00;100755.72;5111683;28;19924;-72
2020/12/14 06:14:59;;;;;;;;;;;;;;;3.15;100.00;100763.75;5107425;28;19924;-72
2020/12/14 06:17:26;;;;;;;;;;;;;;;3.14;100.00;100769.16;5099316;28;20034;-73
2020/12/14 06:19:52;;;;;;;;;;;;;;;3.15;100.00;100766.44;5102229;28;19962;-72
2020/12/14 06:22:19;;;;;;;;;;;;;;;3.14;100.00;100763.81;5111750;28;19924;-73
2020/12/14 06:24:46;;;;;;;;;;;;;;;3.15;100.00;100766.44;5109716;28;20018;-72
2020/12/14 06:27:12;;;;;;;;;;;;;;;3.14;100.00;100762.00;5109877;28;20023;-72
2020/12/14 06:29:40;;;;;;;;;;;;;;;3.15;100.00;100763.75;5097487;28;19932;-72
2020/12/14 06:32:32;;;;;;;;;;;;;;;3.11;100.00;100763.97;5110760;28;20424;-72
2020/12/14 06:34:58;;;;;;;;;;;;;;;3.13;100.00;100762.94;5109777;28;19971;-72
2020/12/14 06:37:24;;;;;;;;;;;;;;;3.12;100.00;100766.56;5102843;28;20428;-72
2020/12/14 06:39:57;;;;;;;;;;;;;;;3.13;100.00;100767.47;5095071;28;19970;-72
2020/12/14 06:42:24;;;;;;;;;;;;;;;3.12;100.00;100758.53;5114233;28;19951;-72
2020/12/14 06:45:08;;;;;;;;;;;;;;;3.15;100.00;100763.75;5115464;28;19924;-72
2020/12/14 06:47:41;;;;;;;;;;;;;;;3.11;100.00;100758.59;5102125;28;19924;-73
2020/12/14 06:50:25;;;;;;;;;;;;;;;3.08;100.00;100754.25;5101925;28;19963;-72
2020/12/14 06:52:51;;;;;;;;;;;;;;;3.07;100.00;100755.19;5100901;28;19963;-72
2020/12/14 06:55:27;;;;;;;;;;;;;;;3.07;100.00;100752.50;5096023;28;20009;-72
2020/12/14 06:57:53;;;;;;;;;;;;;;;3.02;100.00;100754.56;5114084;28;19962;-72
2020/12/14 07:00:30;;;;;;;;;;;;;;;3.01;100.00;100752.84;5114600;28;19931;-72
2020/12/14 07:02:56;;;;;;;;;;;;;;;3.01;100.00;100756.38;5109117;28;19974;-73
2020/12/14 07:05:32;;;;;;;;;;;;;;;2.99;100.00;100755.59;5106017;28;19924;-72
2020/12/14 07:07:58;;;;;;;;;;;;;;;2.97;100.00;100749.41;5113054;28;20884;-72
2020/12/14 07:10:26;;;;;;;;;;;;;;;2.98;100.00;100751.16;5097701;28;19924;-72
2020/12/14 07:12:52;;;;;;;;;;;;;;;3.01;100.00;100747.47;5108720;28;19923;-72
2020/12/14 07:15:28;;;;;;;;;;;;;;;3.00;100.00;100753.78;5100727;28;19977;-72
2020/12/14 07:18:09;;;;;;;;;;;;;;;3.02;100.00;100751.91;5094400;28;19977;-72
2020/12/14 07:20:35;;;;;;;;;;;;;;;3.00;100.00;100757.31;5092016;28;19924;-72
2020/12/14 07:23:04;;;;;;;;;;;;;;;2.96;100.00;100745.00;5102122;28;19928;-73
2020/12/14 07:25:31;;;;;;;;;;;;;;;2.96;100.00;100752.19;5104603;28;20393;-71
2020/12/14 07:27:57;;;;;;;;;;;;;;;2.93;100.00;100755.03;5110321;28;19978;-72
2020/12/14 07:30:23;;;;;;;;;;;;;;;2.94;100.00;100762.09;5113571;28;19927;-73
2020/12/14 07:32:49;;;;;;;;;;;;;;;2.93;100.00;100757.72;5112759;28;19924;-73
2020/12/14 07:35:15;;;;;;;;;;;;;;;2.91;100.00;100747.03;5098276;28;19939;-73
2020/12/14 07:37:41;;;;;;;;;;;;;;;2.91;100.00;100749.72;5101985;28;20385;-73
2020/12/14 07:40:07;;;;;;;;;;;;;;;2.91;100.00;100751.53;5099131;28;20006;-72
2020/12/14 07:42:38;;;;;;;;;;;;;;;2.95;100.00;100754.00;5104568;28;19963;-73
2020/12/14 07:45:07;;;;;;;;;;;;;;;2.99;100.00;100765.44;5106725;28;20082;-73
2020/12/14 07:47:33;;;;;;;;;;;;;;;2.96;100.00;100769.13;5103299;28;19962;-73
2020/12/14 07:50:05;;;;;;;;;;;;;;;2.96;100.00;100774.50;5112939;28;19924;-73
2020/12/14 07:52:33;;;;;;;;;;;;;;;2.94;100.00;100762.09;5114011;28;19946;-73
2020/12/14 07:54:59;;;;;;;;;;;;;;;2.96;100.00;100776.31;5110552;28;19932;-73
2020/12/14 07:57:30;;;;;;;;;;;;;;;2.95;100.00;100759.38;5104395;28;19924;-74
2020/12/14 07:59:56;;;;;;;;;;;;;;;2.99;100.00;100771.69;5095831;28;19946;-73
2020/12/14 08:02:23;;;;;;;;;;;;;;;3.03;100.00;100768.84;5093377;28;20306;-73
2020/12/14 08:04:49;;;;;;;;;;;;;;;3.02;100.00;100773.34;5110385;28;19967;-73
2020/12/14 08:07:16;;;;;;;;;;;;;;;2.99;100.00;100771.69;5099422;28;19931;-73
2020/12/14 08:09:45;;;;;;;;;;;;;;;2.95;100.00;100767.41;5113582;28;19989;-73
2020/12/14 08:12:10;;;;;;;;;;;;;;;2.96;100.00;100773.63;5101920;28;19928;-73
2020/12/14 08:14:36;;;;;;;;;;;;;;;2.98;100.00;100777.09;5093232;28;19977;-73
2020/12/14 08:17:03;;;;;;;;;;;;;;;3.02;100.00;100776.03;5093020;28;19928;-73
2020/12/14 08:19:35;;;;;;;;;;;;;;;3.05;100.00;100769.63;5093439;28;19927;-73
2020/12/14 08:22:01;;;;;;;;;;;;;;;3.10;100.00;100771.16;5092811;28;19928;-73
2020/12/14 08:24:28;;;;;;;;;;;;;;;3.05;100.00;100774.97;5096404;28;19951;-73
2020/12/14 08:26:57;;;;;;;;;;;;;;;3.10;100.00;100784.56;5103946;28;20006;-73
2020/12/14 08:29:24;;;;;;;;;;;;;;;3.12;100.00;100779.97;5093039;28;19975;-73
2020/12/14 08:31:50;;;;;;;;;;;;;;;3.10;100.00;100767.59;5101347;28;20354;-72
2020/12/14 08:34:26;;;;;;;;;;;;;;;3.14;100.00;100775.41;5111801;28;19923;-72
2020/12/14 08:36:52;;;;;;;;;;;;;;;3.19;100.00;100777.84;5095105;28;20369;-72
2020/12/14 08:39:18;;;;;;;;;;;;;;;3.25;100.00;100779.41;5092301;28;20031;-73
2020/12/14 08:41:44;;;;;;;;;;;;;;;3.24;100.00;100774.97;5092686;28;19993;-74
2020/12/14 08:44:18;;;;;;;;;;;;;;;3.31;100.00;100766.53;5105907;28;20404;-73
2020/12/14 08:46:44;;;;;;;;;;;;;;;3.30;100.00;100766.59;5110866;28;20301;-73
2020/12/14 08:49:09;;;;;;;;;;;;;;;3.32;100.00;100762.03;5110089;28;19931;-72
2020/12/14 08:51:36;;;;;;;;;;;;;;;3.35;100.00;100760.06;5112057;28;19924;-72
2020/12/14 08:54:10;;;;;;;;;;;;;;;3.40;100.00;100765.19;5111694;28;19924;-73
2020/12/14 08:56:35;;;;;;;;;;;;;;;3.38;100.00;100752.78;5112050;27;19963;-72
2020/12/14 08:59:02;;;;;;;;;;;;;;;3.44;100.00;100764.09;5107425;28;19931;-73
2020/12/14 09:01:28;;;;;;;;;;;;;;;3.45;100.00;100748.88;5092299;28;19967;-72
2020/12/14 09:03:55;;;;;;;;;;;;;;;3.45;100.00;100757.78;5104825;28;19977;-73
2020/12/14 09:06:25;;;;;;;;;;;;;;;3.52;100.00;100759.19;5113491;28;20374;-73
2020/12/14 09:08:58;;;;;;;;;;;;;;;3.57;100.00;100755.41;5097369;28;19928;-73
2020/12/14 09:11:28;;;;;;;;;;;;;;;3.64;100.00;100754.16;5095963;28;19974;-74
2020/12/14 09:13:54;;;;;;;;;;;;;;;3.64;100.00;100754.16;5091982;28;19951;-73
2020/12/14 09:16:19;;;;;;;;;;;;;;;3.69;100.00;100762.84;5095703;28;20369;-73
2020/12/14 09:18:45;;;;;;;;;;;;;;;3.71;100.00;100762.75;5105017;28;19924;-72
2020/12/14 09:21:11;;;;;;;;;;;;;;;3.74;100.00;100750.06;5091367;28;20338;-73
2020/12/14 09:23:37;;;;;;;;;;;;;;;3.77;100.00;100740.94;5097366;28;19927;-73
2020/12/14 09:26:05;;;;;;;;;;;;;;;3.85;100.00;100749.47;5112419;28;19928;-73
2020/12/14 09:28:34;;;;;;;;;;;;;;;3.90;100.00;100742.06;5108402;28;19935;-73
2020/12/14 09:30:59;;;;;;;;;;;;;;;3.91;100.00;100737.53;5093506;28;19934;-72
2020/12/14 09:33:25;;;;;;;;;;;;;;;3.96;100.00;100740.84;5092123;28;20392;-73
2020/12/14 09:35:51;;;;;;;;;;;;;;;4.02;100.00;100733.34;5092914;28;19928;-73
2020/12/14 09:38:18;;;;;;;;;;;;;;;4.10;100.00;100735.63;5092879;28;19928;-73
2020/12/14 09:40:43;;;;;;;;;;;;;;;4.12;100.00;100731.00;5091778;28;20330;-73
2020/12/14 09:43:10;;;;;;;;;;;;;;;4.07;100.00;100742.97;5108051;28;19930;-74
2020/12/14 09:45:36;;;;;;;;;;;;;;;4.05;100.00;100740.34;5112306;28;19960;-73
2020/12/14 09:48:01;;;;;;;;;;;;;;;4.09;100.00;100738.34;5110810;28;19931;-73
2020/12/14 09:50:27;;;;;;;;;;;;;;;4.15;100.00;100728.16;5096413;28;20381;-73
2020/12/14 09:52:53;;;;;;;;;;;;;;;4.16;100.00;100729.88;5111296;28;19931;-74
2020/12/14 09:55:19;;;;;;;;;;;;;;;4.14;100.00;100725.53;5112061;28;20454;-73
2020/12/14 09:57:45;;;;;;;;;;;;;;;4.16;100.00;100716.44;5097709;28;19924;-73
2020/12/14 10:00:11;;;;;;;;;;;;;;;4.22;100.00;100726.00;5091640;28;20048;-73
2020/12/14 10:02:37;;;;;;;;;;;;;;;4.20;100.00;100727.91;5104967;28;20018;-73
2020/12/14 10:05:03;;;;;;;;;;;;;;;4.19;100.00;100728.84;5111761;28;20473;-73
2020/12/14 10:07:29;;;;;;;;;;;;;;;4.30;100.00;100718.41;5103792;28;19930;-72
2020/12/14 10:09:54;;;;;;;;;;;;;;;4.46;100.00;100728.28;5101464;28;20293;-72
2020/12/14 10:12:20;;;;;;;;;;;;;;;4.49;100.00;100712.84;5111804;28;19934;-73
2020/12/14 10:14:46;;;;;;;;;;;;;;;4.56;100.00;100725.94;5098287;28;19924;-73
2020/12/14 10:17:13;;;;;;;;;;;;;;;4.48;100.00;100726.41;5102532;28;19969;-73
2020/12/14 10:19:38;;;;;;;;;;;;;;;4.48;100.00;100721.00;5100596;28;20022;-73
2020/12/14 10:22:04;;;;;;;;;;;;;;;4.51;100.00;100720.84;5091306;28;19934;-72
2020/12/14 10:24:30;;;;;;;;;;;;;;;4.51;100.00;100707.41;5091375;28;19924;-72
2020/12/14 10:26:56;;;;;;;;;;;;;;;4.50;100.00;100716.41;5091347;28;20323;-72
2020/12/14 10:29:22;;;;;;;;;;;;;;;4.52;100.00;100712.69;5095022;28;19935;-74
2020/12/14 10:31:48;;;;;;;;;;;;;;;4.45;100.00;100703.25;5102681;28;19928;-74
2020/12/14 10:34:14;;;;;;;;;;;;;;;4.44;100.00;100701.50;5105989;28;20378;-75
2020/12/14 10:36:43;;;;;;;;;;;;;;;4.47;100.00;100703.16;5106779;28;19966;-72
2020/12/14 10:39:09;;;;;;;;;;;;;;;4.48;100.00;100711.13;5091216;28;20007;-72
2020/12/14 10:41:35;;;;;;;;;;;;;;;4.47;100.00;100708.53;5111585;28;19976;-73
2020/12/14 10:44:01;;;;;;;;;;;;;;;4.46;100.00;100713.03;5111095;28;20324;-73
2020/12/14 10:46:26;;;;;;;;;;;;;;;4.53;100.00;100700.13;5110513;28;19931;-73
2020/12/14 10:48:52;;;;;;;;;;;;;;;4.59;100.00;100701.59;5104704;28;20356;-72
2020/12/14 10:51:19;;;;;;;;;;;;;;;4.71;100.00;100705.41;5102624;28;20015;-72
2020/12/14 10:53:45;;;;;;;;;;;;;;;4.82;100.00;100714.59;5110563;28;19955;-72
2020/12/14 10:56:10;;;;;;;;;;;;;;;4.84;100.00;100704.59;5109533;28;20311;-73
2020/12/14 10:58:36;;;;;;;;;;;;;;;4.97;100.00;100698.50;5109612;28;19935;-73
2020/12/14 11:01:02;;;;;;;;;;;;;;;5.03;100.00;100692.78;5109487;28;19924;-72
2020/12/14 11:03:28;;;;;;;;;;;;;;;4.99;100.00;100672.38;5099592;28;19974;-73
2020/12/14 11:05:54;;;;;;;;;;;;;;;5.00;100.00;100676.81;5111095;28;20339;-73
2020/12/14 11:08:21;;;;;;;;;;;;;;;5.04;100.00;100678.38;5111224;28;20466;-73
2020/12/14 11:10:47;;;;;;;;;;;;;;;5.00;100.00;100668.75;5110490;28;19974;-72
2020/12/14 11:13:13;;;;;;;;;;;;;;;5.07;100.00;100659.34;5111117;28;19978;-73
2020/12/14 11:15:39;;;;;;;;;;;;;;;5.17;100.00;100671.31;5111306;28;19924;-74
2020/12/14 11:18:04;;;;;;;;;;;;;;;4.95;100.00;100660.09;5114770;28;19928;-73
2020/12/14 11:20:31;;;;;;;;;;;;;;;5.05;100.00;100666.66;5097854;28;20422;-73
2020/12/14 11:22:57;;;;;;;;;;;;;;;5.21;100.00;100669.28;5094455;28;19971;-72
2020/12/14 11:25:23;;;;;;;;;;;;;;;5.29;100.00;100661.63;5108649;28;20545;-73
2020/12/14 11:27:49;;;;;;;;;;;;;;;5.50;100.00;100667.53;5110194;28;19990;-74
2020/12/14 11:30:15;;;;;;;;;;;;;;;5.71;100.00;100661.78;5105502;28;20405;-72
2020/12/14 11:32:41;;;;;;;;;;;;;;;5.66;100.00;100664.75;5105181;28;19932;-71
2020/12/14 11:35:06;;;;;;;;;;;;;;;5.95;100.00;100655.84;5107633;28;19923;-72
2020/12/14 11:37:34;;;;;;;;;;;;;;;5.88;100.00;100649.97;5110231;27;19930;-72
2020/12/14 11:39:59;;;;;;;;;;;;;;;5.85;100.00;100650.16;5103867;28;19977;-71
2020/12/14 11:42:26;;;;;;;;;;;;;;;5.82;100.00;100644.97;5105378;28;19927;-71
2020/12/14 11:44:52;;;;;;;;;;;;;;;5.80;100.00;100646.88;5113214;28;19962;-72
2020/12/14 11:47:17;;;;;;;;;;;;;;;5.85;100.00;100661.81;5114390;27;19928;-71
2020/12/14 11:49:43;;;;;;;;;;;;;;;5.92;100.00;100654.22;5111587;28;19931;-71
2020/12/14 11:52:09;;;;;;;;;;;;;;;6.08;100.00;100651.44;5099133;28;19924;-71
2020/12/14 11:54:35;;;;;;;;;;;;;;;6.24;100.00;100645.94;5114101;28;20456;-71
2020/12/14 11:57:01;;;;;;;;;;;;;;;6.25;100.00;100646.78;5113381;27;20138;-71
2020/12/14 11:59:27;;;;;;;;;;;;;;;6.38;100.00;100647.72;5107613;28;19931;-71
2020/12/14 12:01:53;;;;;;;;;;;;;;;6.48;100.00;100656.97;5112977;28;20018;-71
2020/12/14 12:04:19;;;;;;;;;;;;;;;6.53;100.00;100644.03;5112504;28;19923;-72
2020/12/14 12:06:45;;;;;;;;;;;;;;;6.65;100.00;100647.75;5112455;28;19987;-71
2020/12/14 12:09:11;;;;;;;;;;;;;;;6.71;100.00;100638.41;5111043;28;19971;-71
2020/12/14 12:11:37;;;;;;;;;;;;;;;6.44;100.00;100636.56;5102018;28;19923;-72
2020/12/14 12:14:03;;;;;;;;;;;;;;;6.32;100.00;100629.25;5113477;28;19923;-71
2020/12/14 12:16:29;;;;;;;;;;;;;;;6.16;100.00;100618.59;5095775;28;19924;-71
2020/12/14 12:18:55;;;;;;;;;;;;;;;6.07;100.00;100611.97;5093358;28;20026;-73
2020/12/14 12:21:21;;;;;;;;;;;;;;;6.04;100.00;100617.56;5109468;28;19977;-73
2020/12/14 12:23:47;;;;;;;;;;;;;;;6.05;100.00;100618.44;5113204;28;19924;-73
2020/12/14 12:26:13;;;;;;;;;;;;;;;6.09;100.00;100620.81;5105968;28;19981;-71
2020/12/14 12:28:39;;;;;;;;;;;;;;;6.08;100.00;100618.22;5106881;28;19963;-72
2020/12/14 12:31:05;;;;;;;;;;;;;;;6.10;100.00;100619.84;5113268;28;19927;-73
2020/12/14 12:33:32;;;;;;;;;;;;;;;6.00;100.00;100614.19;5113137;28;19967;-72